sensor_id;sensor_type;location;lat;lon;timestamp;P1;P2;P0
64229;PMS5003;50547;49.498;0.092;2023-03-24T00:01:27;6;6;
64229;PMS5003;50547;49.498;0.092;2023-03-24T00:03:56;5;5;
64229;PMS5003;50547;49.498;0.092;2023-03-24T00:06:26;5;5;
64229;PMS5003;50547;49.498;0.092;2023-03-24T00:08:55;7;7;
64229;PMS5003;50547;49.498;0.092;2023-03-24T00:11:24;6;6;
64229;PMS5003;50547;49.498;0.092;2023-03-24T00:13:54;6;6;
64229;PMS5003;50547;49.498;0.092;2023-03-24T00:16:23;5;5;
64229;PMS5003;50547;49.498;0.092;2023-03-24T00:18:52;6;6;
64229;PMS5003;50547;49.498;0.092;2023-03-24T00:21:22;5;5;
64229;PMS5003;50547;49.498;0.092;2023-03-24T00:23:53;7;7;
64229;PMS5003;50547;49.498;0.092;2023-03-24T00:26:24;7;7;
64229;PMS5003;50547;49.498;0.092;2023-03-24T00:28:53;5;5;
64229;PMS5003;50547;49.498;0.092;2023-03-24T00:31:23;4;4;
64229;PMS5003;50547;49.498;0.092;2023-03-24T00:33:52;5;5;
64229;PMS5003;50547;49.498;0.092;2023-03-24T00:36:23;5;5;
64229;PMS5003;50547;49.498;0.092;2023-03-24T00:38:53;4;4;
64229;PMS5003;50547;49.498;0.092;2023-03-24T00:41:24;6;6;
64229;PMS5003;50547;49.498;0.092;2023-03-24T00:43:54;5;5;
64229;PMS5003;50547;49.498;0.092;2023-03-24T00:46:24;5;5;
64229;PMS5003;50547;49.498;0.092;2023-03-24T00:48:54;4;4;
64229;PMS5003;50547;49.498;0.092;2023-03-24T00:51:25;4;4;
64229;PMS5003;50547;49.498;0.092;2023-03-24T00:53:54;5;5;
64229;PMS5003;50547;49.498;0.092;2023-03-24T00:56:25;5;5;
64229;PMS5003;50547;49.498;0.092;2023-03-24T00:58:55;7;7;
64229;PMS5003;50547;49.498;0.092;2023-03-24T01:01:25;5;5;
64229;PMS5003;50547;49.498;0.092;2023-03-24T01:03:55;4;4;
64229;PMS5003;50547;49.498;0.092;2023-03-24T01:06:24;5;5;
64229;PMS5003;50547;49.498;0.092;2023-03-24T01:08:53;4;4;
64229;PMS5003;50547;49.498;0.092;2023-03-24T01:11:24;6;6;
64229;PMS5003;50547;49.498;0.092;2023-03-24T01:13:54;6;6;
64229;PMS5003;50547;49.498;0.092;2023-03-24T01:16:23;4;4;
64229;PMS5003;50547;49.498;0.092;2023-03-24T01:18:52;6;6;
64229;PMS5003;50547;49.498;0.092;2023-03-24T01:21:21;7;7;
64229;PMS5003;50547;49.498;0.092;2023-03-24T01:23:50;6;6;
64229;PMS5003;50547;49.498;0.092;2023-03-24T01:26:20;7;7;
64229;PMS5003;50547;49.498;0.092;2023-03-24T01:28:49;5;5;
64229;PMS5003;50547;49.498;0.092;2023-03-24T01:31:18;4;4;
64229;PMS5003;50547;49.498;0.092;2023-03-24T01:33:47;5;5;
64229;PMS5003;50547;49.498;0.092;2023-03-24T01:36:16;5;5;
64229;PMS5003;50547;49.498;0.092;2023-03-24T01:38:46;5;5;
64229;PMS5003;50547;49.498;0.092;2023-03-24T01:41:15;4;4;
64229;PMS5003;50547;49.498;0.092;2023-03-24T01:43:44;5;5;
64229;PMS5003;50547;49.498;0.092;2023-03-24T01:46:15;6;6;
64229;PMS5003;50547;49.498;0.092;2023-03-24T01:48:43;7;7;
64229;PMS5003;50547;49.498;0.092;2023-03-24T01:51:18;4;4;
64229;PMS5003;50547;49.498;0.092;2023-03-24T01:53:51;6;6;
64229;PMS5003;50547;49.498;0.092;2023-03-24T01:56:20;6;6;
64229;PMS5003;50547;49.498;0.092;2023-03-24T02:03:39;7;7;
64229;PMS5003;50547;49.498;0.092;2023-03-24T02:06:09;6;6;
64229;PMS5003;50547;49.498;0.092;2023-03-24T02:08:41;5;5;
64229;PMS5003;50547;49.498;0.092;2023-03-24T02:11:16;6;6;
64229;PMS5003;50547;49.498;0.092;2023-03-24T02:13:45;6;6;
64229;PMS5003;50547;49.498;0.092;2023-03-24T02:16:14;6;6;
64229;PMS5003;50547;49.498;0.092;2023-03-24T02:18:58;7;7;
64229;PMS5003;50547;49.498;0.092;2023-03-24T02:21:46;5;5;
64229;PMS5003;50547;49.498;0.092;2023-03-24T02:24:46;5;5;
64229;PMS5003;50547;49.498;0.092;2023-03-24T02:27:49;6;6;
64229;PMS5003;50547;49.498;0.092;2023-03-24T02:35:08;5;5;
64229;PMS5003;50547;49.498;0.092;2023-03-24T02:37:57;5;5;
64229;PMS5003;50547;49.498;0.092;2023-03-24T02:40:43;6;6;
64229;PMS5003;50547;49.498;0.092;2023-03-24T02:43:17;4;4;
64229;PMS5003;50547;49.498;0.092;2023-03-24T02:46:00;4;4;
64229;PMS5003;50547;49.498;0.092;2023-03-24T02:48:36;6;6;
64229;PMS5003;50547;49.498;0.092;2023-03-24T02:51:12;6;6;
64229;PMS5003;50547;49.498;0.092;2023-03-24T02:53:50;6;6;
64229;PMS5003;50547;49.498;0.092;2023-03-24T02:56:24;5;5;
64229;PMS5003;50547;49.498;0.092;2023-03-24T02:58:58;5;5;
64229;PMS5003;50547;49.498;0.092;2023-03-24T03:01:31;6;6;
64229;PMS5003;50547;49.498;0.092;2023-03-24T03:04:06;5;5;
64229;PMS5003;50547;49.498;0.092;2023-03-24T03:06:37;7;7;
64229;PMS5003;50547;49.498;0.092;2023-03-24T03:09:10;7;7;
64229;PMS5003;50547;49.498;0.092;2023-03-24T03:11:43;6;6;
64229;PMS5003;50547;49.498;0.092;2023-03-24T03:14:17;5;5;
64229;PMS5003;50547;49.498;0.092;2023-03-24T03:16:50;5;5;
64229;PMS5003;50547;49.498;0.092;2023-03-24T03:19:23;6;6;
64229;PMS5003;50547;49.498;0.092;2023-03-24T03:21:57;7;7;
64229;PMS5003;50547;49.498;0.092;2023-03-24T03:24:29;8;8;
64229;PMS5003;50547;49.498;0.092;2023-03-24T03:27:02;6;6;
64229;PMS5003;50547;49.498;0.092;2023-03-24T03:29:35;7;7;
64229;PMS5003;50547;49.498;0.092;2023-03-24T03:32:09;6;6;
64229;PMS5003;50547;49.498;0.092;2023-03-24T03:34:43;7;7;
64229;PMS5003;50547;49.498;0.092;2023-03-24T03:37:19;7;7;
64229;PMS5003;50547;49.498;0.092;2023-03-24T03:39:53;5;5;
64229;PMS5003;50547;49.498;0.092;2023-03-24T03:42:25;7;7;
64229;PMS5003;50547;49.498;0.092;2023-03-24T03:44:54;8;8;
64229;PMS5003;50547;49.498;0.092;2023-03-24T03:47:24;6;6;
64229;PMS5003;50547;49.498;0.092;2023-03-24T03:49:53;6;6;
64229;PMS5003;50547;49.498;0.092;2023-03-24T03:52:22;6;6;
64229;PMS5003;50547;49.498;0.092;2023-03-24T03:54:52;5;5;
64229;PMS5003;50547;49.498;0.092;2023-03-24T03:57:22;7;7;
64229;PMS5003;50547;49.498;0.092;2023-03-24T03:59:51;5;5;
64229;PMS5003;50547;49.498;0.092;2023-03-24T04:02:25;6;6;
64229;PMS5003;50547;49.498;0.092;2023-03-24T04:05:07;6;6;
64229;PMS5003;50547;49.498;0.092;2023-03-24T04:07:50;6;6;
64229;PMS5003;50547;49.498;0.092;2023-03-24T04:10:35;7;7;
64229;PMS5003;50547;49.498;0.092;2023-03-24T04:13:23;7;7;
64229;PMS5003;50547;49.498;0.092;2023-03-24T04:16:02;8;8;
64229;PMS5003;50547;49.498;0.092;2023-03-24T04:18:43;7;7;
64229;PMS5003;50547;49.498;0.092;2023-03-24T04:21:26;7;7;
64229;PMS5003;50547;49.498;0.092;2023-03-24T04:24:13;7;7;
64229;PMS5003;50547;49.498;0.092;2023-03-24T04:26:51;6;6;
64229;PMS5003;50547;49.498;0.092;2023-03-24T04:29:24;7;7;
64229;PMS5003;50547;49.498;0.092;2023-03-24T04:32:01;5;5;
64229;PMS5003;50547;49.498;0.092;2023-03-24T04:34:38;7;7;
64229;PMS5003;50547;49.498;0.092;2023-03-24T04:37:12;7;7;
64229;PMS5003;50547;49.498;0.092;2023-03-24T04:39:45;7;7;
64229;PMS5003;50547;49.498;0.092;2023-03-24T04:42:18;7;7;
64229;PMS5003;50547;49.498;0.092;2023-03-24T04:44:50;7;7;
64229;PMS5003;50547;49.498;0.092;2023-03-24T04:47:20;6;6;
64229;PMS5003;50547;49.498;0.092;2023-03-24T04:49:58;7;7;
64229;PMS5003;50547;49.498;0.092;2023-03-24T04:52:28;7;7;
64229;PMS5003;50547;49.498;0.092;2023-03-24T04:54:57;7;7;
64229;PMS5003;50547;49.498;0.092;2023-03-24T04:57:28;7;7;
64229;PMS5003;50547;49.498;0.092;2023-03-24T04:59:57;7;7;
64229;PMS5003;50547;49.498;0.092;2023-03-24T05:02:26;7;7;
64229;PMS5003;50547;49.498;0.092;2023-03-24T05:04:55;6;6;
64229;PMS5003;50547;49.498;0.092;2023-03-24T05:07:24;7;7;
64229;PMS5003;50547;49.498;0.092;2023-03-24T05:09:53;6;6;
64229;PMS5003;50547;49.498;0.092;2023-03-24T05:12:23;7;7;
64229;PMS5003;50547;49.498;0.092;2023-03-24T05:14:52;6;6;
64229;PMS5003;50547;49.498;0.092;2023-03-24T05:17:21;7;7;
64229;PMS5003;50547;49.498;0.092;2023-03-24T05:19:50;7;7;
64229;PMS5003;50547;49.498;0.092;2023-03-24T05:22:19;7;7;
64229;PMS5003;50547;49.498;0.092;2023-03-24T05:24:49;7;7;
64229;PMS5003;50547;49.498;0.092;2023-03-24T05:27:16;7;7;
64229;PMS5003;50547;49.498;0.092;2023-03-24T05:29:45;7;7;
64229;PMS5003;50547;49.498;0.092;2023-03-24T05:32:14;7;7;
64229;PMS5003;50547;49.498;0.092;2023-03-24T05:34:43;8;8;
64229;PMS5003;50547;49.498;0.092;2023-03-24T05:37:12;7;7;
64229;PMS5003;50547;49.498;0.092;2023-03-24T05:39:42;7;7;
64229;PMS5003;50547;49.498;0.092;2023-03-24T05:42:11;7;7;
64229;PMS5003;50547;49.498;0.092;2023-03-24T05:44:41;7;7;
64229;PMS5003;50547;49.498;0.092;2023-03-24T05:47:10;7;7;
64229;PMS5003;50547;49.498;0.092;2023-03-24T05:49:39;7;7;
64229;PMS5003;50547;49.498;0.092;2023-03-24T05:52:08;7;7;
64229;PMS5003;50547;49.498;0.092;2023-03-24T05:54:38;7;7;
64229;PMS5003;50547;49.498;0.092;2023-03-24T05:57:10;8;8;
64229;PMS5003;50547;49.498;0.092;2023-03-24T05:59:40;8;8;
64229;PMS5003;50547;49.498;0.092;2023-03-24T06:02:09;7;7;
64229;PMS5003;50547;49.498;0.092;2023-03-24T06:04:39;7;7;
64229;PMS5003;50547;49.498;0.092;2023-03-24T06:07:08;7;7;
64229;PMS5003;50547;49.498;0.092;2023-03-24T06:09:38;8;8;
64229;PMS5003;50547;49.498;0.092;2023-03-24T06:12:08;7;7;
64229;PMS5003;50547;49.498;0.092;2023-03-24T06:14:37;7;7;
64229;PMS5003;50547;49.498;0.092;2023-03-24T06:17:06;7;7;
64229;PMS5003;50547;49.498;0.092;2023-03-24T06:19:36;8;8;
64229;PMS5003;50547;49.498;0.092;2023-03-24T06:22:05;8;8;
64229;PMS5003;50547;49.498;0.092;2023-03-24T06:24:34;9;9;
64229;PMS5003;50547;49.498;0.092;2023-03-24T06:27:03;6;6;
64229;PMS5003;50547;49.498;0.092;2023-03-24T06:29:32;7;7;
64229;PMS5003;50547;49.498;0.092;2023-03-24T06:31:59;8;8;
64229;PMS5003;50547;49.498;0.092;2023-03-24T06:34:28;7;7;
64229;PMS5003;50547;49.498;0.092;2023-03-24T06:36:57;7;7;
64229;PMS5003;50547;49.498;0.092;2023-03-24T06:39:27;7;7;
64229;PMS5003;50547;49.498;0.092;2023-03-24T06:41:56;7;7;
64229;PMS5003;50547;49.498;0.092;2023-03-24T06:44:25;7;7;
64229;PMS5003;50547;49.498;0.092;2023-03-24T06:46:54;7;7;
64229;PMS5003;50547;49.498;0.092;2023-03-24T06:49:24;7;7;
64229;PMS5003;50547;49.498;0.092;2023-03-24T06:51:53;9;9;
64229;PMS5003;50547;49.498;0.092;2023-03-24T06:54:22;7;7;
64229;PMS5003;50547;49.498;0.092;2023-03-24T06:56:51;8;8;
64229;PMS5003;50547;49.498;0.092;2023-03-24T06:59:20;8;8;
64229;PMS5003;50547;49.498;0.092;2023-03-24T07:01:50;7;7;
64229;PMS5003;50547;49.498;0.092;2023-03-24T07:04:19;7;7;
64229;PMS5003;50547;49.498;0.092;2023-03-24T07:06:49;7;7;
64229;PMS5003;50547;49.498;0.092;2023-03-24T07:09:18;7;7;
64229;PMS5003;50547;49.498;0.092;2023-03-24T07:11:47;7;7;
64229;PMS5003;50547;49.498;0.092;2023-03-24T07:14:17;7;7;
64229;PMS5003;50547;49.498;0.092;2023-03-24T07:16:46;7;7;
64229;PMS5003;50547;49.498;0.092;2023-03-24T07:19:16;7;7;
64229;PMS5003;50547;49.498;0.092;2023-03-24T07:21:45;7;7;
64229;PMS5003;50547;49.498;0.092;2023-03-24T07:24:15;8;8;
64229;PMS5003;50547;49.498;0.092;2023-03-24T07:26:44;7;7;
64229;PMS5003;50547;49.498;0.092;2023-03-24T07:29:13;8;8;
64229;PMS5003;50547;49.498;0.092;2023-03-24T07:31:42;9;9;
64229;PMS5003;50547;49.498;0.092;2023-03-24T07:34:11;7;7;
64229;PMS5003;50547;49.498;0.092;2023-03-24T07:36:40;8;8;
64229;PMS5003;50547;49.498;0.092;2023-03-24T07:39:10;7;7;
64229;PMS5003;50547;49.498;0.092;2023-03-24T07:41:39;8;8;
64229;PMS5003;50547;49.498;0.092;2023-03-24T07:44:08;7;7;
64229;PMS5003;50547;49.498;0.092;2023-03-24T07:46:37;8;8;
64229;PMS5003;50547;49.498;0.092;2023-03-24T07:49:06;9;9;
64229;PMS5003;50547;49.498;0.092;2023-03-24T07:51:35;10;10;
64229;PMS5003;50547;49.498;0.092;2023-03-24T07:54:05;8;8;
64229;PMS5003;50547;49.498;0.092;2023-03-24T07:56:34;8;8;
64229;PMS5003;50547;49.498;0.092;2023-03-24T07:59:03;10;10;
64229;PMS5003;50547;49.498;0.092;2023-03-24T08:01:32;8;8;
64229;PMS5003;50547;49.498;0.092;2023-03-24T08:04:01;8;8;
64229;PMS5003;50547;49.498;0.092;2023-03-24T08:06:31;8;8;
64229;PMS5003;50547;49.498;0.092;2023-03-24T08:09:00;10;10;
64229;PMS5003;50547;49.498;0.092;2023-03-24T08:11:29;7;7;
64229;PMS5003;50547;49.498;0.092;2023-03-24T08:13:58;10;10;
64229;PMS5003;50547;49.498;0.092;2023-03-24T08:16:28;8;8;
64229;PMS5003;50547;49.498;0.092;2023-03-24T08:18:57;8;8;
64229;PMS5003;50547;49.498;0.092;2023-03-24T08:21:26;8;8;
64229;PMS5003;50547;49.498;0.092;2023-03-24T08:23:55;8;8;
64229;PMS5003;50547;49.498;0.092;2023-03-24T08:26:24;8;8;
64229;PMS5003;50547;49.498;0.092;2023-03-24T08:28:50;8;8;
64229;PMS5003;50547;49.498;0.092;2023-03-24T08:31:20;8;8;
64229;PMS5003;50547;49.498;0.092;2023-03-24T08:33:49;8;8;
64229;PMS5003;50547;49.498;0.092;2023-03-24T08:36:18;8;8;
64229;PMS5003;50547;49.498;0.092;2023-03-24T08:38:47;8;8;
64229;PMS5003;50547;49.498;0.092;2023-03-24T08:41:17;8;8;
64229;PMS5003;50547;49.498;0.092;2023-03-24T08:43:46;10;10;
64229;PMS5003;50547;49.498;0.092;2023-03-24T08:46:15;10;10;
64229;PMS5003;50547;49.498;0.092;2023-03-24T08:48:45;8;8;
64229;PMS5003;50547;49.498;0.092;2023-03-24T08:51:15;8;8;
64229;PMS5003;50547;49.498;0.092;2023-03-24T08:53:46;10;10;
64229;PMS5003;50547;49.498;0.092;2023-03-24T08:56:15;9;9;
64229;PMS5003;50547;49.498;0.092;2023-03-24T08:58:44;8;8;
64229;PMS5003;50547;49.498;0.092;2023-03-24T09:01:13;8;8;
64229;PMS5003;50547;49.498;0.092;2023-03-24T09:03:43;8;8;
64229;PMS5003;50547;49.498;0.092;2023-03-24T09:06:12;8;8;
64229;PMS5003;50547;49.498;0.092;2023-03-24T09:08:42;8;8;
64229;PMS5003;50547;49.498;0.092;2023-03-24T09:11:13;8;8;
64229;PMS5003;50547;49.498;0.092;2023-03-24T09:13:44;8;8;
64229;PMS5003;50547;49.498;0.092;2023-03-24T09:16:13;8;8;
64229;PMS5003;50547;49.498;0.092;2023-03-24T09:18:43;8;8;
64229;PMS5003;50547;49.498;0.092;2023-03-24T09:21:12;8;8;
64229;PMS5003;50547;49.498;0.092;2023-03-24T09:23:41;7;7;
64229;PMS5003;50547;49.498;0.092;2023-03-24T09:26:10;8;8;
64229;PMS5003;50547;49.498;0.092;2023-03-24T09:28:40;8;8;
64229;PMS5003;50547;49.498;0.092;2023-03-24T09:31:09;8;8;
64229;PMS5003;50547;49.498;0.092;2023-03-24T09:33:39;8;8;
64229;PMS5003;50547;49.498;0.092;2023-03-24T09:36:09;7;7;
64229;PMS5003;50547;49.498;0.092;2023-03-24T09:38:38;7;7;
64229;PMS5003;50547;49.498;0.092;2023-03-24T09:41:10;7;7;
64229;PMS5003;50547;49.498;0.092;2023-03-24T09:43:45;6;6;
64229;PMS5003;50547;49.498;0.092;2023-03-24T09:46:20;7;7;
64229;PMS5003;50547;49.498;0.092;2023-03-24T09:48:56;8;8;
64229;PMS5003;50547;49.498;0.092;2023-03-24T09:51:27;7;7;
64229;PMS5003;50547;49.498;0.092;2023-03-24T09:54:00;7;7;
64229;PMS5003;50547;49.498;0.092;2023-03-24T09:56:37;7;7;
64229;PMS5003;50547;49.498;0.092;2023-03-24T09:59:11;8;8;
64229;PMS5003;50547;49.498;0.092;2023-03-24T10:01:44;8;8;
64229;PMS5003;50547;49.498;0.092;2023-03-24T10:04:14;8;8;
64229;PMS5003;50547;49.498;0.092;2023-03-24T10:06:45;7;7;
64229;PMS5003;50547;49.498;0.092;2023-03-24T10:09:20;8;8;
64229;PMS5003;50547;49.498;0.092;2023-03-24T10:11:59;8;8;
64229;PMS5003;50547;49.498;0.092;2023-03-24T10:14:43;7;7;
64229;PMS5003;50547;49.498;0.092;2023-03-24T10:17:22;7;7;
64229;PMS5003;50547;49.498;0.092;2023-03-24T10:20:03;7;7;
64229;PMS5003;50547;49.498;0.092;2023-03-24T10:22:42;8;8;
64229;PMS5003;50547;49.498;0.092;2023-03-24T10:25:21;8;8;
64229;PMS5003;50547;49.498;0.092;2023-03-24T10:27:54;8;8;
64229;PMS5003;50547;49.498;0.092;2023-03-24T10:30:27;8;8;
64229;PMS5003;50547;49.498;0.092;2023-03-24T10:33:00;9;9;
64229;PMS5003;50547;49.498;0.092;2023-03-24T10:35:30;8;8;
64229;PMS5003;50547;49.498;0.092;2023-03-24T10:38:05;10;10;
64229;PMS5003;50547;49.498;0.092;2023-03-24T10:40:48;7;7;
64229;PMS5003;50547;49.498;0.092;2023-03-24T10:43:18;8;8;
64229;PMS5003;50547;49.498;0.092;2023-03-24T10:45:48;10;10;
64229;PMS5003;50547;49.498;0.092;2023-03-24T10:48:40;8;8;
64229;PMS5003;50547;49.498;0.092;2023-03-24T10:51:12;8;8;
64229;PMS5003;50547;49.498;0.092;2023-03-24T10:53:43;7;7;
64229;PMS5003;50547;49.498;0.092;2023-03-24T10:56:14;7;7;
64229;PMS5003;50547;49.498;0.092;2023-03-24T10:58:45;10;10;
64229;PMS5003;50547;49.498;0.092;2023-03-24T11:01:23;8;8;
64229;PMS5003;50547;49.498;0.092;2023-03-24T11:04:02;8;8;
64229;PMS5003;50547;49.498;0.092;2023-03-24T11:06:33;8;8;
64229;PMS5003;50547;49.498;0.092;2023-03-24T11:09:07;8;8;
64229;PMS5003;50547;49.498;0.092;2023-03-24T11:11:38;8;8;
64229;PMS5003;50547;49.498;0.092;2023-03-24T11:14:08;9;9;
64229;PMS5003;50547;49.498;0.092;2023-03-24T11:16:48;9;9;
64229;PMS5003;50547;49.498;0.092;2023-03-24T11:19:18;9;9;
64229;PMS5003;50547;49.498;0.092;2023-03-24T11:21:50;8;8;
64229;PMS5003;50547;49.498;0.092;2023-03-24T11:24:25;8;8;
64229;PMS5003;50547;49.498;0.092;2023-03-24T11:26:56;8;8;
64229;PMS5003;50547;49.498;0.092;2023-03-24T11:29:27;8;8;
64229;PMS5003;50547;49.498;0.092;2023-03-24T11:32:00;8;8;
64229;PMS5003;50547;49.498;0.092;2023-03-24T11:34:31;8;8;
64229;PMS5003;50547;49.498;0.092;2023-03-24T11:37:03;7;7;
64229;PMS5003;50547;49.498;0.092;2023-03-24T11:39:35;7;7;
64229;PMS5003;50547;49.498;0.092;2023-03-24T11:42:11;7;7;
64229;PMS5003;50547;49.498;0.092;2023-03-24T11:44:44;7;7;
64229;PMS5003;50547;49.498;0.092;2023-03-24T11:47:21;9;9;
64229;PMS5003;50547;49.498;0.092;2023-03-24T11:49:59;8;8;
64229;PMS5003;50547;49.498;0.092;2023-03-24T11:52:38;8;8;
64229;PMS5003;50547;49.498;0.092;2023-03-24T11:55:13;14;14;
64229;PMS5003;50547;49.498;0.092;2023-03-24T11:57:46;10;10;
64229;PMS5003;50547;49.498;0.092;2023-03-24T12:00:23;11;11;
64229;PMS5003;50547;49.498;0.092;2023-03-24T12:03:01;10;10;
64229;PMS5003;50547;49.498;0.092;2023-03-24T12:05:49;7;7;
64229;PMS5003;50547;49.498;0.092;2023-03-24T12:08:29;8;8;
64229;PMS5003;50547;49.498;0.092;2023-03-24T12:11:10;8;8;
64229;PMS5003;50547;49.498;0.092;2023-03-24T12:13:44;8;8;
64229;PMS5003;50547;49.498;0.092;2023-03-24T12:16:20;10;10;
64229;PMS5003;50547;49.498;0.092;2023-03-24T12:19:11;8;8;
64229;PMS5003;50547;49.498;0.092;2023-03-24T12:21:54;8;8;
64229;PMS5003;50547;49.498;0.092;2023-03-24T12:24:34;8;8;
64229;PMS5003;50547;49.498;0.092;2023-03-24T12:27:18;7;7;
64229;PMS5003;50547;49.498;0.092;2023-03-24T12:29:58;7;7;
64229;PMS5003;50547;49.498;0.092;2023-03-24T12:32:33;7;7;
64229;PMS5003;50547;49.498;0.092;2023-03-24T12:35:17;7;7;
64229;PMS5003;50547;49.498;0.092;2023-03-24T12:37:58;9;9;
64229;PMS5003;50547;49.498;0.092;2023-03-24T12:40:42;7;7;
64229;PMS5003;50547;49.498;0.092;2023-03-24T12:43:26;10;10;
64229;PMS5003;50547;49.498;0.092;2023-03-24T12:46:01;10;10;
64229;PMS5003;50547;49.498;0.092;2023-03-24T12:48:43;9;9;
64229;PMS5003;50547;49.498;0.092;2023-03-24T12:51:25;10;10;
64229;PMS5003;50547;49.498;0.092;2023-03-24T12:54:08;7;7;
64229;PMS5003;50547;49.498;0.092;2023-03-24T12:56:46;7;7;
64229;PMS5003;50547;49.498;0.092;2023-03-24T12:59:21;4;4;
64229;PMS5003;50547;49.498;0.092;2023-03-24T13:02:00;4;4;
64229;PMS5003;50547;49.498;0.092;2023-03-24T13:04:34;4;4;
64229;PMS5003;50547;49.498;0.092;2023-03-24T13:07:07;4;4;
64229;PMS5003;50547;49.498;0.092;2023-03-24T13:09:40;4;4;
64229;PMS5003;50547;49.498;0.092;2023-03-24T13:12:15;6;6;
64229;PMS5003;50547;49.498;0.092;2023-03-24T13:14:48;4;4;
64229;PMS5003;50547;49.498;0.092;2023-03-24T13:17:25;4;4;
64229;PMS5003;50547;49.498;0.092;2023-03-24T13:19:57;5;5;
64229;PMS5003;50547;49.498;0.092;2023-03-24T13:22:28;4;4;
64229;PMS5003;50547;49.498;0.092;2023-03-24T13:24:58;6;6;
64229;PMS5003;50547;49.498;0.092;2023-03-24T13:27:30;7;7;
64229;PMS5003;50547;49.498;0.092;2023-03-24T13:30:10;7;7;
64229;PMS5003;50547;49.498;0.092;2023-03-24T13:32:48;8;8;
64229;PMS5003;50547;49.498;0.092;2023-03-24T13:35:26;6;6;
64229;PMS5003;50547;49.498;0.092;2023-03-24T13:38:05;5;5;
64229;PMS5003;50547;49.498;0.092;2023-03-24T13:40:48;8;8;
64229;PMS5003;50547;49.498;0.092;2023-03-24T13:43:20;7;7;
64229;PMS5003;50547;49.498;0.092;2023-03-24T13:45:56;6;6;
64229;PMS5003;50547;49.498;0.092;2023-03-24T13:48:30;6;6;
64229;PMS5003;50547;49.498;0.092;2023-03-24T13:51:04;5;5;
64229;PMS5003;50547;49.498;0.092;2023-03-24T13:53:43;7;7;
64229;PMS5003;50547;49.498;0.092;2023-03-24T13:56:20;6;6;
64229;PMS5003;50547;49.498;0.092;2023-03-24T13:59:25;6;6;
64229;PMS5003;50547;49.498;0.092;2023-03-24T14:03:11;8;8;
64229;PMS5003;50547;49.498;0.092;2023-03-24T14:05:59;7;7;
64229;PMS5003;50547;49.498;0.092;2023-03-24T14:08:34;7;7;
64229;PMS5003;50547;49.498;0.092;2023-03-24T14:11:08;8;8;
64229;PMS5003;50547;49.498;0.092;2023-03-24T14:14:15;10;10;
64229;PMS5003;50547;49.498;0.092;2023-03-24T14:16:49;10;10;
64229;PMS5003;50547;49.498;0.092;2023-03-24T14:19:21;9;9;
64229;PMS5003;50547;49.498;0.092;2023-03-24T14:21:56;8;8;
64229;PMS5003;50547;49.498;0.092;2023-03-24T14:24:31;7;7;
64229;PMS5003;50547;49.498;0.092;2023-03-24T14:27:00;7;7;
64229;PMS5003;50547;49.498;0.092;2023-03-24T14:29:50;7;7;
64229;PMS5003;50547;49.498;0.092;2023-03-24T14:32:19;6;6;
64229;PMS5003;50547;49.498;0.092;2023-03-24T14:34:50;4;4;
64229;PMS5003;50547;49.498;0.092;2023-03-24T14:37:22;3;3;
64229;PMS5003;50547;49.498;0.092;2023-03-24T14:39:53;4;4;
64229;PMS5003;50547;49.498;0.092;2023-03-24T14:42:25;4;4;
64229;PMS5003;50547;49.498;0.092;2023-03-24T14:45:37;4;4;
64229;PMS5003;50547;49.498;0.092;2023-03-24T14:48:22;5;5;
64229;PMS5003;50547;49.498;0.092;2023-03-24T14:50:57;4;4;
64229;PMS5003;50547;49.498;0.092;2023-03-24T14:53:29;3;3;
64229;PMS5003;50547;49.498;0.092;2023-03-24T14:56:02;4;4;
64229;PMS5003;50547;49.498;0.092;2023-03-24T14:58:34;3;3;
64229;PMS5003;50547;49.498;0.092;2023-03-24T15:01:05;4;4;
64229;PMS5003;50547;49.498;0.092;2023-03-24T15:03:35;3;3;
64229;PMS5003;50547;49.498;0.092;2023-03-24T15:06:12;4;4;
64229;PMS5003;50547;49.498;0.092;2023-03-24T15:08:44;4;4;
64229;PMS5003;50547;49.498;0.092;2023-03-24T15:11:18;4;4;
64229;PMS5003;50547;49.498;0.092;2023-03-24T15:13:51;5;5;
64229;PMS5003;50547;49.498;0.092;2023-03-24T15:16:22;4;4;
64229;PMS5003;50547;49.498;0.092;2023-03-24T15:18:54;4;4;
64229;PMS5003;50547;49.498;0.092;2023-03-24T15:21:26;4;4;
64229;PMS5003;50547;49.498;0.092;2023-03-24T15:23:57;5;5;
64229;PMS5003;50547;49.498;0.092;2023-03-24T15:26:23;4;4;
64229;PMS5003;50547;49.498;0.092;2023-03-24T15:28:53;5;5;
64229;PMS5003;50547;49.498;0.092;2023-03-24T15:31:29;4;4;
64229;PMS5003;50547;49.498;0.092;2023-03-24T15:34:02;6;6;
64229;PMS5003;50547;49.498;0.092;2023-03-24T15:36:33;6;6;
64229;PMS5003;50547;49.498;0.092;2023-03-24T15:39:16;5;5;
64229;PMS5003;50547;49.498;0.092;2023-03-24T15:41:48;6;6;
64229;PMS5003;50547;49.498;0.092;2023-03-24T15:44:19;5;5;
64229;PMS5003;50547;49.498;0.092;2023-03-24T15:46:53;6;6;
64229;PMS5003;50547;49.498;0.092;2023-03-24T15:49:24;4;4;
64229;PMS5003;50547;49.498;0.092;2023-03-24T15:51:56;4;4;
64229;PMS5003;50547;49.498;0.092;2023-03-24T15:54:27;4;4;
64229;PMS5003;50547;49.498;0.092;2023-03-24T15:57:00;7;7;
64229;PMS5003;50547;49.498;0.092;2023-03-24T15:59:42;5;5;
64229;PMS5003;50547;49.498;0.092;2023-03-24T16:02:19;4;4;
64229;PMS5003;50547;49.498;0.092;2023-03-24T16:04:56;7;7;
64229;PMS5003;50547;49.498;0.092;2023-03-24T16:07:29;5;5;
64229;PMS5003;50547;49.498;0.092;2023-03-24T16:10:00;4;4;
64229;PMS5003;50547;49.498;0.092;2023-03-24T16:12:32;5;5;
64229;PMS5003;50547;49.498;0.092;2023-03-24T16:15:03;4;4;
64229;PMS5003;50547;49.498;0.092;2023-03-24T16:17:33;4;4;
64229;PMS5003;50547;49.498;0.092;2023-03-24T16:20:02;5;5;
64229;PMS5003;50547;49.498;0.092;2023-03-24T16:22:32;4;4;
64229;PMS5003;50547;49.498;0.092;2023-03-24T16:25:01;5;5;
64229;PMS5003;50547;49.498;0.092;2023-03-24T16:27:27;5;5;
64229;PMS5003;50547;49.498;0.092;2023-03-24T16:29:53;4;4;
64229;PMS5003;50547;49.498;0.092;2023-03-24T16:32:22;5;5;
64229;PMS5003;50547;49.498;0.092;2023-03-24T16:34:52;7;7;
64229;PMS5003;50547;49.498;0.092;2023-03-24T16:37:21;6;6;
64229;PMS5003;50547;49.498;0.092;2023-03-24T16:39:50;5;5;
64229;PMS5003;50547;49.498;0.092;2023-03-24T16:42:19;5;5;
64229;PMS5003;50547;49.498;0.092;2023-03-24T16:44:48;6;6;
64229;PMS5003;50547;49.498;0.092;2023-03-24T16:47:17;5;5;
64229;PMS5003;50547;49.498;0.092;2023-03-24T16:49:47;5;5;
64229;PMS5003;50547;49.498;0.092;2023-03-24T16:52:16;5;5;
64229;PMS5003;50547;49.498;0.092;2023-03-24T16:54:45;4;4;
64229;PMS5003;50547;49.498;0.092;2023-03-24T16:57:14;5;5;
64229;PMS5003;50547;49.498;0.092;2023-03-24T16:59:43;4;4;
64229;PMS5003;50547;49.498;0.092;2023-03-24T17:02:13;4;4;
64229;PMS5003;50547;49.498;0.092;2023-03-24T17:04:42;4;4;
64229;PMS5003;50547;49.498;0.092;2023-03-24T17:07:11;4;4;
64229;PMS5003;50547;49.498;0.092;2023-03-24T17:09:40;6;6;
64229;PMS5003;50547;49.498;0.092;2023-03-24T17:12:09;5;5;
64229;PMS5003;50547;49.498;0.092;2023-03-24T17:14:38;5;5;
64229;PMS5003;50547;49.498;0.092;2023-03-24T17:17:09;4;4;
64229;PMS5003;50547;49.498;0.092;2023-03-24T17:19:38;5;5;
64229;PMS5003;50547;49.498;0.092;2023-03-24T17:22:07;4;4;
64229;PMS5003;50547;49.498;0.092;2023-03-24T17:24:37;4;4;
64229;PMS5003;50547;49.498;0.092;2023-03-24T17:27:14;5;5;
64229;PMS5003;50547;49.498;0.092;2023-03-24T17:29:44;5;5;
64229;PMS5003;50547;49.498;0.092;2023-03-24T17:32:13;5;5;
64229;PMS5003;50547;49.498;0.092;2023-03-24T17:34:43;5;5;
64229;PMS5003;50547;49.498;0.092;2023-03-24T17:37:12;4;4;
64229;PMS5003;50547;49.498;0.092;2023-03-24T17:39:41;5;5;